createdAt,value
2023-09-27T00:04:54.064Z,21.10
2023-09-27T00:09:57.166Z,18.50
2023-09-27T00:15:03.070Z,18.00
2023-09-27T00:20:10.854Z,20.80
2023-09-27T00:25:15.490Z,21.20
2023-09-27T00:30:18.479Z,26.00
2023-09-27T00:35:23.775Z,24.30
2023-09-27T00:40:27.922Z,25.30
2023-09-27T00:45:31.187Z,29.00
2023-09-27T00:50:34.046Z,26.90
2023-09-27T00:55:37.216Z,26.50
2023-09-27T01:00:40.462Z,25.90
2023-09-27T01:05:43.697Z,29.30
2023-09-27T01:10:47.455Z,24.90
2023-09-27T01:15:50.530Z,23.50
2023-09-27T01:20:53.358Z,29.60
2023-09-27T01:26:01.139Z,26.10
2023-09-27T01:31:04.148Z,27.50
2023-09-27T01:36:07.930Z,30.90
2023-09-27T01:41:10.706Z,26.40
2023-09-27T01:46:13.515Z,24.80
2023-09-27T01:51:16.432Z,28.50
2023-09-27T01:56:19.239Z,26.10
2023-09-27T02:01:22.106Z,31.10
2023-09-27T02:06:25.042Z,28.00
2023-09-27T02:11:27.976Z,31.60
2023-09-27T02:16:32.924Z,31.30
2023-09-27T02:21:35.666Z,30.20
2023-09-27T02:26:38.588Z,28.60
2023-09-27T02:31:41.379Z,27.70
2023-09-27T02:36:44.194Z,32.40
2023-09-27T02:41:46.897Z,35.20
2023-09-27T02:46:50.054Z,30.90
2023-09-27T02:51:55.352Z,36.50
2023-09-27T02:56:58.208Z,35.10
2023-09-27T03:02:00.989Z,36.10
2023-09-27T03:07:04.294Z,32.20
2023-09-27T03:12:08.054Z,39.60
2023-09-27T03:17:11.402Z,32.40
2023-09-27T03:22:14.302Z,35.10
2023-09-27T03:27:18.154Z,31.90
2023-09-27T03:32:21.310Z,31.70
2023-09-27T03:37:24.687Z,33.70
2023-09-27T03:42:28.101Z,33.80
2023-09-27T03:47:31.080Z,33.30
2023-09-27T03:52:34.104Z,32.60
2023-09-27T03:57:36.902Z,35.20
2023-09-27T04:02:39.767Z,33.90
2023-09-27T04:07:42.942Z,33.40
2023-09-27T04:12:45.758Z,33.50
2023-09-27T04:17:48.519Z,37.30
2023-09-27T04:22:51.416Z,35.90
2023-09-27T04:27:54.835Z,34.20
2023-09-27T04:32:57.615Z,33.70
2023-09-27T04:38:00.608Z,35.70
2023-09-27T04:43:03.670Z,35.60
2023-09-27T04:48:07.310Z,34.10
2023-09-27T04:53:11.050Z,36.80
2023-09-27T04:58:13.808Z,34.30
2023-09-27T05:03:16.632Z,37.70
2023-09-27T05:08:19.646Z,38.60
2023-09-27T05:13:22.954Z,37.80
2023-09-27T05:18:25.902Z,42.50
2023-09-27T05:23:28.925Z,36.10
2023-09-27T05:28:33.621Z,37.30
2023-09-27T05:33:36.492Z,39.40
2023-09-27T05:38:40.014Z,36.90
2023-09-27T05:43:42.989Z,36.50
2023-09-27T05:48:45.957Z,37.70
2023-09-27T05:53:53.688Z,44.70
2023-09-27T05:59:00.858Z,39.60
2023-09-27T06:04:04.996Z,40.60
2023-09-27T06:09:11.364Z,38.00
2023-09-27T06:14:15.370Z,35.40
2023-09-27T06:19:18.122Z,41.60
2023-09-27T06:24:20.901Z,38.90
2023-09-27T06:29:23.712Z,45.50
2023-09-27T06:34:27.509Z,35.40
2023-09-27T06:39:30.394Z,36.80
2023-09-27T06:44:35.353Z,35.60
2023-09-27T06:49:38.386Z,33.30
2023-09-27T06:54:42.063Z,31.70
2023-09-27T06:59:45.258Z,30.70
2023-09-27T07:04:48.977Z,32.60
2023-09-27T07:09:52.141Z,29.40
2023-09-27T07:14:54.866Z,28.70
2023-09-27T07:19:57.976Z,27.30
2023-09-27T07:25:02.930Z,29.20
2023-09-27T07:30:06.689Z,28.20
2023-09-27T07:35:11.658Z,27.30
2023-09-27T07:40:15.889Z,29.70
2023-09-27T07:45:23.584Z,25.10
2023-09-27T07:50:34.932Z,25.60
2023-09-27T07:55:44.639Z,30.90
2023-09-27T08:00:47.750Z,23.80
2023-09-27T08:05:50.807Z,27.40
2023-09-27T08:10:54.211Z,23.30
2023-09-27T08:15:57.183Z,23.20
2023-09-27T08:21:04.949Z,24.90
2023-09-27T08:26:13.773Z,26.20
2023-09-27T08:31:19.236Z,24.50
2023-09-27T08:36:22.178Z,23.10
2023-09-27T08:41:31.146Z,25.60
2023-09-27T08:46:37.428Z,23.90
2023-09-27T08:51:43.708Z,20.80
2023-09-27T08:56:55.236Z,22.70
2023-09-27T09:01:58.911Z,23.40
2023-09-27T09:07:04.603Z,23.70
2023-09-27T09:12:11.099Z,20.20
2023-09-27T09:17:19.346Z,19.50
2023-09-27T09:22:31.896Z,20.80
2023-09-27T09:27:35.577Z,18.30
2023-09-27T09:32:52.972Z,21.90
2023-09-27T09:37:56.698Z,18.50
2023-09-27T09:43:01.268Z,17.70
2023-09-27T09:48:05.080Z,21.90
2023-09-27T09:53:11.403Z,18.80
2023-09-27T09:58:37.173Z,19.20
2023-09-27T10:03:48.984Z,17.70
2023-09-27T10:08:53.254Z,14.10
2023-09-27T10:13:56.943Z,15.40
2023-09-27T10:19:02.938Z,14.70
2023-09-27T10:24:09.196Z,12.40
2023-09-27T10:34:29.323Z,12.80
2023-09-27T10:39:34.292Z,15.50
2023-09-27T10:49:43.234Z,9.90
2023-09-27T10:54:48.915Z,14.10
2023-09-27T10:59:53.843Z,12.30
2023-09-27T11:04:57.333Z,10.50
2023-09-27T11:10:02.751Z,14.80
2023-09-27T11:15:06.976Z,10.10
2023-09-27T11:20:14.165Z,9.60
2023-09-27T11:30:33.688Z,9.00
2023-09-27T11:35:51.677Z,10.00
2023-09-27T11:40:55.397Z,11.50
2023-09-27T11:46:00.863Z,11.10
2023-09-27T11:51:06.478Z,18.80
2023-09-27T11:56:12.003Z,10.10
2023-09-27T12:01:15.928Z,11.70
2023-09-27T12:06:20.629Z,9.20
2023-09-27T12:11:26.846Z,11.60
2023-09-27T12:16:33.497Z,9.00
2023-09-27T12:21:37.337Z,10.40
2023-09-27T12:26:42.558Z,10.40
2023-09-27T12:41:53.903Z,9.50
2023-09-27T12:46:56.907Z,9.60
2023-09-27T12:51:59.878Z,10.70
2023-09-27T13:12:11.621Z,13.90
2023-09-27T13:17:14.366Z,12.00
2023-09-27T13:22:17.360Z,11.70
2023-09-27T13:27:20.339Z,12.90
2023-09-27T14:57:42.040Z,12.70
2023-09-27T15:02:44.837Z,9.10
2023-09-27T15:07:47.737Z,8.60
2023-09-27T15:12:50.808Z,8.80
2023-09-27T15:17:53.702Z,8.40
2023-09-27T15:22:56.574Z,13.00
2023-09-27T15:28:00.849Z,8.90
2023-09-27T15:33:03.900Z,12.00
2023-09-27T15:38:06.996Z,13.20
2023-09-27T15:43:10.821Z,10.60
2023-09-27T15:48:13.693Z,10.90
2023-09-27T15:53:16.779Z,14.50
2023-09-27T15:58:19.727Z,12.90
2023-09-27T16:03:22.928Z,13.80
2023-09-27T16:08:28.410Z,12.90
2023-09-27T16:13:31.553Z,11.30
2023-09-27T16:25:12.926Z,13.40
2023-09-27T16:30:34.601Z,14.40
2023-09-27T16:35:38.620Z,13.80
2023-09-27T16:40:41.794Z,16.70
2023-09-27T16:45:45.050Z,14.30
2023-09-27T16:50:48.137Z,11.10
2023-09-27T16:55:51.304Z,11.60
2023-09-27T17:00:56.737Z,14.00
2023-09-27T17:05:59.829Z,13.00
2023-09-27T17:11:02.952Z,13.40
2023-09-27T17:16:08.634Z,17.70
2023-09-27T17:21:11.701Z,14.30
2023-09-27T17:26:14.808Z,20.70
2023-09-27T17:31:17.987Z,18.30
2023-09-27T17:36:21.028Z,15.00
2023-09-27T17:41:24.033Z,17.50
2023-09-27T17:46:28.927Z,14.40
2023-09-27T17:51:32.988Z,10.80
2023-09-27T17:56:36.159Z,13.30
2023-09-27T18:01:40.206Z,15.30
2023-09-27T18:06:43.427Z,12.50
2023-09-27T18:11:46.352Z,13.80
2023-09-27T18:16:49.287Z,14.50
2023-09-27T18:21:52.148Z,13.40
2023-09-27T18:26:55.744Z,14.00
2023-09-27T18:32:01.035Z,14.60
2023-09-27T18:37:04.404Z,16.60
2023-09-27T18:42:07.274Z,14.80
2023-09-27T18:47:10.469Z,15.00
2023-09-27T18:52:14.378Z,20.10
2023-09-27T18:57:17.107Z,18.50
2023-09-27T19:02:19.852Z,16.50
2023-09-27T19:07:23.675Z,16.00
2023-09-27T19:12:26.371Z,15.40
2023-09-27T19:17:29.093Z,15.20
2023-09-27T19:22:33.414Z,17.70
2023-09-27T19:27:36.181Z,21.00
2023-09-27T19:32:39.318Z,16.00
2023-09-27T19:37:42.755Z,13.20
2023-09-27T19:42:47.943Z,17.60
2023-09-27T19:47:51.373Z,16.00
2023-09-27T19:52:54.397Z,19.00
2023-09-27T19:57:57.478Z,15.00
2023-09-27T20:03:00.311Z,15.50
2023-09-27T20:08:03.431Z,15.00
2023-09-27T20:13:06.312Z,18.10
2023-09-27T20:18:09.137Z,15.70
2023-09-27T20:23:11.904Z,15.70
2023-09-27T20:28:14.790Z,13.40
2023-09-27T20:33:18.345Z,15.50
2023-09-27T20:38:21.050Z,16.40
2023-09-27T20:43:23.851Z,15.30
2023-09-27T20:48:26.763Z,19.30
2023-09-27T20:53:29.517Z,14.80
2023-09-27T20:58:32.930Z,17.60
2023-09-27T21:03:36.683Z,19.10
2023-09-27T21:08:39.573Z,16.30
2023-09-27T21:13:42.309Z,15.90
2023-09-27T21:18:45.166Z,16.90
2023-09-27T21:23:47.968Z,15.50
2023-09-27T21:28:50.966Z,16.30
2023-09-27T21:33:54.050Z,18.90
2023-09-27T21:38:57.041Z,20.40
2023-09-27T21:44:00.092Z,19.70
2023-09-27T21:49:02.907Z,15.60
2023-09-27T21:54:05.776Z,18.20
2023-09-27T21:59:09.511Z,18.40
2023-09-27T22:04:12.378Z,19.20
2023-09-27T22:09:15.225Z,15.80
2023-09-27T22:14:21.039Z,18.80
2023-09-27T22:19:29.037Z,15.40
2023-09-27T22:24:32.284Z,18.70
2023-09-27T22:29:35.081Z,19.20
2023-09-27T22:34:38.875Z,16.70
2023-09-27T22:39:41.851Z,17.40
2023-09-27T22:44:45.025Z,18.20
2023-09-27T22:49:47.801Z,19.10
2023-09-27T22:54:50.677Z,26.60
2023-09-27T22:59:54.927Z,17.90
2023-09-27T23:04:58.047Z,18.20
2023-09-27T23:10:04.606Z,19.90
2023-09-27T23:15:10.221Z,19.00
2023-09-27T23:20:13.107Z,18.10
2023-09-27T23:25:34.813Z,22.80
2023-09-27T23:30:51.080Z,16.90
2023-09-27T23:35:54.247Z,19.00
2023-09-27T23:41:00.574Z,19.50
2023-09-27T23:46:07.095Z,14.70
2023-09-27T23:51:09.911Z,18.60
2023-09-27T23:56:12.743Z,20.00
